sensor_id;sensor_type;location;lat;lon;timestamp;P1;durP1;ratioP1;P2;durP2;ratioP2
8540;SDS011;4308;51.294;6.590;2023-04-24T00:02:15;2.13;;;1.40;;
8540;SDS011;4308;51.294;6.590;2023-04-24T00:04:43;1.63;;;1.33;;
8540;SDS011;4308;51.294;6.590;2023-04-24T00:07:11;3.17;;;1.57;;
8540;SDS011;4308;51.294;6.590;2023-04-24T00:09:38;2.40;;;1.20;;
8540;SDS011;4308;51.294;6.590;2023-04-24T00:12:07;3.20;;;1.50;;
8540;SDS011;4308;51.294;6.590;2023-04-24T00:14:34;3.33;;;1.70;;
8540;SDS011;4308;51.294;6.590;2023-04-24T00:17:02;2.10;;;1.90;;
8540;SDS011;4308;51.294;6.590;2023-04-24T00:19:29;2.43;;;1.70;;
8540;SDS011;4308;51.294;6.590;2023-04-24T00:21:57;2.97;;;1.80;;
8540;SDS011;4308;51.294;6.590;2023-04-24T00:24:24;3.90;;;1.97;;
8540;SDS011;4308;51.294;6.590;2023-04-24T00:26:52;2.37;;;1.93;;
8540;SDS011;4308;51.294;6.590;2023-04-24T00:29:19;2.27;;;1.90;;
8540;SDS011;4308;51.294;6.590;2023-04-24T00:31:47;3.93;;;2.30;;
8540;SDS011;4308;51.294;6.590;2023-04-24T00:34:15;3.77;;;2.80;;
8540;SDS011;4308;51.294;6.590;2023-04-24T00:36:42;5.47;;;3.33;;
8540;SDS011;4308;51.294;6.590;2023-04-24T00:39:10;4.97;;;4.03;;
8540;SDS011;4308;51.294;6.590;2023-04-24T00:41:37;5.23;;;4.00;;
8540;SDS011;4308;51.294;6.590;2023-04-24T00:44:05;5.27;;;4.37;;
8540;SDS011;4308;51.294;6.590;2023-04-24T00:46:33;5.27;;;4.13;;
8540;SDS011;4308;51.294;6.590;2023-04-24T00:49:00;4.33;;;3.77;;
8540;SDS011;4308;51.294;6.590;2023-04-24T00:51:28;9.23;;;4.70;;
8540;SDS011;4308;51.294;6.590;2023-04-24T00:53:56;6.80;;;4.70;;
8540;SDS011;4308;51.294;6.590;2023-04-24T00:56:23;6.37;;;5.27;;
8540;SDS011;4308;51.294;6.590;2023-04-24T00:58:51;10.63;;;5.20;;
8540;SDS011;4308;51.294;6.590;2023-04-24T01:01:19;8.27;;;5.13;;
8540;SDS011;4308;51.294;6.590;2023-04-24T01:03:49;8.77;;;4.80;;
8540;SDS011;4308;51.294;6.590;2023-04-24T01:06:17;7.30;;;4.53;;
8540;SDS011;4308;51.294;6.590;2023-04-24T01:08:45;8.53;;;5.37;;
8540;SDS011;4308;51.294;6.590;2023-04-24T01:11:14;9.33;;;5.30;;
8540;SDS011;4308;51.294;6.590;2023-04-24T01:13:41;6.17;;;4.50;;
8540;SDS011;4308;51.294;6.590;2023-04-24T01:16:09;6.50;;;4.47;;
8540;SDS011;4308;51.294;6.590;2023-04-24T01:18:37;8.60;;;4.97;;
8540;SDS011;4308;51.294;6.590;2023-04-24T01:21:04;5.67;;;4.90;;
8540;SDS011;4308;51.294;6.590;2023-04-24T01:23:33;7.20;;;4.70;;
8540;SDS011;4308;51.294;6.590;2023-04-24T01:26:00;6.67;;;4.63;;
8540;SDS011;4308;51.294;6.590;2023-04-24T01:28:28;5.50;;;4.90;;
8540;SDS011;4308;51.294;6.590;2023-04-24T01:30:56;6.30;;;5.17;;
8540;SDS011;4308;51.294;6.590;2023-04-24T01:33:24;7.27;;;6.00;;
8540;SDS011;4308;51.294;6.590;2023-04-24T01:35:51;6.90;;;5.90;;
8540;SDS011;4308;51.294;6.590;2023-04-24T01:38:19;8.80;;;6.00;;
8540;SDS011;4308;51.294;6.590;2023-04-24T01:40:46;11.83;;;6.13;;
8540;SDS011;4308;51.294;6.590;2023-04-24T01:43:14;7.97;;;6.53;;
8540;SDS011;4308;51.294;6.590;2023-04-24T01:45:42;12.03;;;6.20;;
8540;SDS011;4308;51.294;6.590;2023-04-24T01:48:09;11.03;;;6.10;;
8540;SDS011;4308;51.294;6.590;2023-04-24T01:50:38;11.73;;;6.43;;
8540;SDS011;4308;51.294;6.590;2023-04-24T01:53:06;12.67;;;7.07;;
8540;SDS011;4308;51.294;6.590;2023-04-24T01:55:33;7.97;;;6.37;;
8540;SDS011;4308;51.294;6.590;2023-04-24T01:58:01;11.43;;;6.63;;
8540;SDS011;4308;51.294;6.590;2023-04-24T02:00:28;9.37;;;6.10;;
8540;SDS011;4308;51.294;6.590;2023-04-24T02:02:56;11.53;;;7.43;;
8540;SDS011;4308;51.294;6.590;2023-04-24T02:05:24;14.00;;;7.30;;
8540;SDS011;4308;51.294;6.590;2023-04-24T02:07:51;10.47;;;7.67;;
8540;SDS011;4308;51.294;6.590;2023-04-24T02:10:19;13.50;;;7.60;;
8540;SDS011;4308;51.294;6.590;2023-04-24T02:12:46;13.57;;;7.53;;
8540;SDS011;4308;51.294;6.590;2023-04-24T02:15:14;15.43;;;9.03;;
8540;SDS011;4308;51.294;6.590;2023-04-24T02:17:41;13.33;;;8.70;;
8540;SDS011;4308;51.294;6.590;2023-04-24T02:20:09;13.50;;;8.40;;
8540;SDS011;4308;51.294;6.590;2023-04-24T02:22:37;13.53;;;8.10;;
8540;SDS011;4308;51.294;6.590;2023-04-24T02:25:04;15.17;;;9.77;;
8540;SDS011;4308;51.294;6.590;2023-04-24T02:27:32;16.27;;;8.83;;
8540;SDS011;4308;51.294;6.590;2023-04-24T02:30:00;14.40;;;8.57;;
8540;SDS011;4308;51.294;6.590;2023-04-24T02:32:27;14.93;;;10.13;;
8540;SDS011;4308;51.294;6.590;2023-04-24T02:34:55;15.83;;;9.97;;
8540;SDS011;4308;51.294;6.590;2023-04-24T02:37:22;17.23;;;9.53;;
8540;SDS011;4308;51.294;6.590;2023-04-24T02:39:50;17.40;;;10.23;;
8540;SDS011;4308;51.294;6.590;2023-04-24T02:42:18;18.30;;;10.50;;
8540;SDS011;4308;51.294;6.590;2023-04-24T02:44:45;18.27;;;10.03;;
8540;SDS011;4308;51.294;6.590;2023-04-24T02:47:13;17.07;;;9.97;;
8540;SDS011;4308;51.294;6.590;2023-04-24T02:49:40;16.20;;;10.30;;
8540;SDS011;4308;51.294;6.590;2023-04-24T02:52:08;17.77;;;10.20;;
8540;SDS011;4308;51.294;6.590;2023-04-24T02:54:36;19.30;;;10.43;;
8540;SDS011;4308;51.294;6.590;2023-04-24T02:57:03;16.23;;;9.97;;
8540;SDS011;4308;51.294;6.590;2023-04-24T02:59:31;19.73;;;10.70;;
8540;SDS011;4308;51.294;6.590;2023-04-24T03:01:58;16.87;;;10.73;;
8540;SDS011;4308;51.294;6.590;2023-04-24T03:04:26;20.10;;;10.93;;
8540;SDS011;4308;51.294;6.590;2023-04-24T03:06:54;18.20;;;10.60;;
8540;SDS011;4308;51.294;6.590;2023-04-24T03:09:21;22.43;;;10.53;;
8540;SDS011;4308;51.294;6.590;2023-04-24T03:11:49;20.23;;;11.00;;
8540;SDS011;4308;51.294;6.590;2023-04-24T03:14:17;16.87;;;9.93;;
8540;SDS011;4308;51.294;6.590;2023-04-24T03:16:44;17.07;;;10.47;;
8540;SDS011;4308;51.294;6.590;2023-04-24T03:19:12;18.00;;;10.10;;
8540;SDS011;4308;51.294;6.590;2023-04-24T03:21:39;15.17;;;10.53;;
8540;SDS011;4308;51.294;6.590;2023-04-24T03:24:07;16.20;;;9.87;;
8540;SDS011;4308;51.294;6.590;2023-04-24T03:26:35;14.70;;;9.50;;
8540;SDS011;4308;51.294;6.590;2023-04-24T03:29:02;18.73;;;9.87;;
8540;SDS011;4308;51.294;6.590;2023-04-24T03:31:30;18.13;;;10.37;;
8540;SDS011;4308;51.294;6.590;2023-04-24T03:33:58;13.80;;;9.47;;
8540;SDS011;4308;51.294;6.590;2023-04-24T03:36:25;16.93;;;10.07;;
8540;SDS011;4308;51.294;6.590;2023-04-24T03:38:53;19.60;;;10.13;;
8540;SDS011;4308;51.294;6.590;2023-04-24T03:41:20;17.13;;;8.93;;
8540;SDS011;4308;51.294;6.590;2023-04-24T03:43:48;13.50;;;9.50;;
8540;SDS011;4308;51.294;6.590;2023-04-24T03:46:15;16.63;;;9.83;;
8540;SDS011;4308;51.294;6.590;2023-04-24T03:48:43;19.77;;;10.10;;
8540;SDS011;4308;51.294;6.590;2023-04-24T03:51:10;15.60;;;10.90;;
8540;SDS011;4308;51.294;6.590;2023-04-24T03:53:38;16.53;;;10.40;;
8540;SDS011;4308;51.294;6.590;2023-04-24T03:56:05;15.00;;;10.90;;
8540;SDS011;4308;51.294;6.590;2023-04-24T03:58:33;16.73;;;9.87;;
8540;SDS011;4308;51.294;6.590;2023-04-24T04:01:01;13.70;;;9.73;;
8540;SDS011;4308;51.294;6.590;2023-04-24T04:03:28;12.80;;;9.60;;
8540;SDS011;4308;51.294;6.590;2023-04-24T04:05:56;15.30;;;9.87;;
8540;SDS011;4308;51.294;6.590;2023-04-24T04:08:25;14.80;;;9.80;;
8540;SDS011;4308;51.294;6.590;2023-04-24T04:10:53;16.17;;;9.77;;
8540;SDS011;4308;51.294;6.590;2023-04-24T04:13:21;14.13;;;9.03;;
8540;SDS011;4308;51.294;6.590;2023-04-24T04:15:48;12.43;;;8.83;;
8540;SDS011;4308;51.294;6.590;2023-04-24T04:18:16;14.23;;;9.17;;
8540;SDS011;4308;51.294;6.590;2023-04-24T04:20:43;17.57;;;9.73;;
8540;SDS011;4308;51.294;6.590;2023-04-24T04:23:11;12.40;;;8.80;;
8540;SDS011;4308;51.294;6.590;2023-04-24T04:25:38;11.67;;;9.03;;
8540;SDS011;4308;51.294;6.590;2023-04-24T04:28:06;13.60;;;8.67;;
8540;SDS011;4308;51.294;6.590;2023-04-24T04:30:33;15.13;;;8.50;;
8540;SDS011;4308;51.294;6.590;2023-04-24T04:33:01;12.40;;;8.63;;
8540;SDS011;4308;51.294;6.590;2023-04-24T04:35:29;12.33;;;8.53;;
8540;SDS011;4308;51.294;6.590;2023-04-24T04:37:56;11.93;;;7.97;;
8540;SDS011;4308;51.294;6.590;2023-04-24T04:40:24;10.20;;;7.60;;
8540;SDS011;4308;51.294;6.590;2023-04-24T04:42:52;14.53;;;7.73;;
8540;SDS011;4308;51.294;6.590;2023-04-24T04:45:19;11.43;;;7.67;;
8540;SDS011;4308;51.294;6.590;2023-04-24T04:47:47;10.73;;;7.77;;
8540;SDS011;4308;51.294;6.590;2023-04-24T04:50:14;13.00;;;8.10;;
8540;SDS011;4308;51.294;6.590;2023-04-24T04:52:42;10.70;;;7.10;;
8540;SDS011;4308;51.294;6.590;2023-04-24T04:55:10;10.57;;;8.00;;
8540;SDS011;4308;51.294;6.590;2023-04-24T04:57:37;11.37;;;8.53;;
8540;SDS011;4308;51.294;6.590;2023-04-24T05:00:05;10.10;;;7.57;;
8540;SDS011;4308;51.294;6.590;2023-04-24T05:02:33;13.53;;;9.07;;
8540;SDS011;4308;51.294;6.590;2023-04-24T05:05:00;11.63;;;8.97;;
8540;SDS011;4308;51.294;6.590;2023-04-24T05:07:28;12.53;;;8.93;;
8540;SDS011;4308;51.294;6.590;2023-04-24T05:09:56;14.37;;;9.30;;
8540;SDS011;4308;51.294;6.590;2023-04-24T05:12:23;14.67;;;9.23;;
8540;SDS011;4308;51.294;6.590;2023-04-24T05:14:51;12.30;;;9.00;;
8540;SDS011;4308;51.294;6.590;2023-04-24T05:17:18;11.13;;;8.10;;
8540;SDS011;4308;51.294;6.590;2023-04-24T05:19:46;12.90;;;7.87;;
8540;SDS011;4308;51.294;6.590;2023-04-24T05:22:14;12.00;;;8.47;;
8540;SDS011;4308;51.294;6.590;2023-04-24T05:24:41;10.93;;;8.47;;
8540;SDS011;4308;51.294;6.590;2023-04-24T05:27:09;10.53;;;7.93;;
8540;SDS011;4308;51.294;6.590;2023-04-24T05:29:36;12.33;;;8.77;;
8540;SDS011;4308;51.294;6.590;2023-04-24T05:32:04;9.73;;;7.63;;
8540;SDS011;4308;51.294;6.590;2023-04-24T05:34:32;9.23;;;7.70;;
8540;SDS011;4308;51.294;6.590;2023-04-24T05:36:59;10.20;;;8.00;;
8540;SDS011;4308;51.294;6.590;2023-04-24T05:39:27;10.33;;;7.00;;
8540;SDS011;4308;51.294;6.590;2023-04-24T05:41:54;10.20;;;7.27;;
8540;SDS011;4308;51.294;6.590;2023-04-24T05:44:22;11.70;;;7.13;;
8540;SDS011;4308;51.294;6.590;2023-04-24T05:46:50;10.23;;;7.50;;
8540;SDS011;4308;51.294;6.590;2023-04-24T05:49:17;8.00;;;7.00;;
8540;SDS011;4308;51.294;6.590;2023-04-24T05:51:45;9.20;;;8.30;;
8540;SDS011;4308;51.294;6.590;2023-04-24T05:54:12;11.57;;;7.63;;
8540;SDS011;4308;51.294;6.590;2023-04-24T05:56:40;8.63;;;7.00;;
8540;SDS011;4308;51.294;6.590;2023-04-24T05:59:08;7.77;;;6.73;;
8540;SDS011;4308;51.294;6.590;2023-04-24T06:01:36;12.10;;;7.07;;
8540;SDS011;4308;51.294;6.590;2023-04-24T06:04:04;11.03;;;7.30;;
8540;SDS011;4308;51.294;6.590;2023-04-24T06:06:31;9.37;;;6.93;;
8540;SDS011;4308;51.294;6.590;2023-04-24T06:08:59;8.73;;;6.80;;
8540;SDS011;4308;51.294;6.590;2023-04-24T06:11:26;8.80;;;6.67;;
8540;SDS011;4308;51.294;6.590;2023-04-24T06:13:54;7.57;;;6.13;;
8540;SDS011;4308;51.294;6.590;2023-04-24T06:16:22;7.17;;;5.53;;
8540;SDS011;4308;51.294;6.590;2023-04-24T06:18:49;7.50;;;6.03;;
8540;SDS011;4308;51.294;6.590;2023-04-24T06:21:17;8.03;;;5.57;;
8540;SDS011;4308;51.294;6.590;2023-04-24T06:23:44;5.73;;;5.13;;
8540;SDS011;4308;51.294;6.590;2023-04-24T06:26:12;7.00;;;4.93;;
8540;SDS011;4308;51.294;6.590;2023-04-24T06:28:39;9.10;;;5.13;;
8540;SDS011;4308;51.294;6.590;2023-04-24T06:31:07;6.90;;;4.80;;
8540;SDS011;4308;51.294;6.590;2023-04-24T06:33:34;6.33;;;4.50;;
8540;SDS011;4308;51.294;6.590;2023-04-24T06:36:02;5.77;;;4.37;;
8540;SDS011;4308;51.294;6.590;2023-04-24T06:38:30;8.97;;;4.40;;
8540;SDS011;4308;51.294;6.590;2023-04-24T06:40:57;5.77;;;4.83;;
8540;SDS011;4308;51.294;6.590;2023-04-24T06:43:25;6.13;;;4.50;;
8540;SDS011;4308;51.294;6.590;2023-04-24T06:45:52;5.43;;;4.47;;
8540;SDS011;4308;51.294;6.590;2023-04-24T06:48:20;5.50;;;4.70;;
8540;SDS011;4308;51.294;6.590;2023-04-24T06:50:48;4.40;;;3.80;;
8540;SDS011;4308;51.294;6.590;2023-04-24T06:53:15;6.10;;;3.83;;
8540;SDS011;4308;51.294;6.590;2023-04-24T06:55:43;3.90;;;3.50;;
8540;SDS011;4308;51.294;6.590;2023-04-24T06:58:10;6.23;;;3.40;;
8540;SDS011;4308;51.294;6.590;2023-04-24T07:00:38;5.20;;;3.33;;
8540;SDS011;4308;51.294;6.590;2023-04-24T07:03:05;3.27;;;2.97;;
8540;SDS011;4308;51.294;6.590;2023-04-24T07:05:33;2.70;;;2.37;;
8540;SDS011;4308;51.294;6.590;2023-04-24T07:08:01;2.50;;;2.30;;
8540;SDS011;4308;51.294;6.590;2023-04-24T07:10:29;1.77;;;1.67;;
8540;SDS011;4308;51.294;6.590;2023-04-24T07:12:56;1.30;;;1.20;;
8540;SDS011;4308;51.294;6.590;2023-04-24T07:15:25;1.77;;;1.20;;
8540;SDS011;4308;51.294;6.590;2023-04-24T07:17:53;2.50;;;1.17;;
8540;SDS011;4308;51.294;6.590;2023-04-24T07:20:20;1.00;;;1.00;;
8540;SDS011;4308;51.294;6.590;2023-04-24T07:22:48;1.20;;;1.10;;
8540;SDS011;4308;51.294;6.590;2023-04-24T07:25:15;1.50;;;1.20;;
8540;SDS011;4308;51.294;6.590;2023-04-24T07:27:43;1.20;;;1.10;;
8540;SDS011;4308;51.294;6.590;2023-04-24T07:30:11;1.77;;;1.10;;
8540;SDS011;4308;51.294;6.590;2023-04-24T07:32:39;2.13;;;0.90;;
8540;SDS011;4308;51.294;6.590;2023-04-24T07:35:06;1.40;;;0.90;;
8540;SDS011;4308;51.294;6.590;2023-04-24T07:37:34;1.27;;;0.80;;
8540;SDS011;4308;51.294;6.590;2023-04-24T07:40:02;0.87;;;0.87;;
8540;SDS011;4308;51.294;6.590;2023-04-24T07:42:29;0.70;;;0.70;;
8540;SDS011;4308;51.294;6.590;2023-04-24T07:44:57;1.17;;;1.07;;
8540;SDS011;4308;51.294;6.590;2023-04-24T07:47:24;3.90;;;0.97;;
8540;SDS011;4308;51.294;6.590;2023-04-24T07:49:52;1.27;;;0.90;;
8540;SDS011;4308;51.294;6.590;2023-04-24T07:52:20;1.47;;;1.03;;
8540;SDS011;4308;51.294;6.590;2023-04-24T07:54:47;2.87;;;1.30;;
8540;SDS011;4308;51.294;6.590;2023-04-24T07:57:15;2.23;;;1.50;;
8540;SDS011;4308;51.294;6.590;2023-04-24T07:59:43;2.53;;;1.53;;
8540;SDS011;4308;51.294;6.590;2023-04-24T08:02:11;1.50;;;1.33;;
8540;SDS011;4308;51.294;6.590;2023-04-24T08:04:38;3.57;;;1.80;;
8540;SDS011;4308;51.294;6.590;2023-04-24T08:07:06;2.63;;;1.60;;
8540;SDS011;4308;51.294;6.590;2023-04-24T08:09:34;2.10;;;1.53;;
8540;SDS011;4308;51.294;6.590;2023-04-24T08:12:01;3.30;;;1.07;;
8540;SDS011;4308;51.294;6.590;2023-04-24T08:14:29;1.17;;;1.10;;
8540;SDS011;4308;51.294;6.590;2023-04-24T08:16:57;1.50;;;0.90;;
8540;SDS011;4308;51.294;6.590;2023-04-24T08:19:24;1.00;;;1.00;;
8540;SDS011;4308;51.294;6.590;2023-04-24T08:21:52;1.53;;;1.20;;
8540;SDS011;4308;51.294;6.590;2023-04-24T08:24:19;3.67;;;1.20;;
8540;SDS011;4308;51.294;6.590;2023-04-24T08:26:47;2.33;;;1.20;;
8540;SDS011;4308;51.294;6.590;2023-04-24T08:29:15;1.83;;;0.97;;
8540;SDS011;4308;51.294;6.590;2023-04-24T08:31:42;2.40;;;1.20;;
8540;SDS011;4308;51.294;6.590;2023-04-24T08:34:10;1.17;;;1.07;;
8540;SDS011;4308;51.294;6.590;2023-04-24T08:36:37;1.07;;;1.00;;
8540;SDS011;4308;51.294;6.590;2023-04-24T08:39:13;2.63;;;1.43;;
8540;SDS011;4308;51.294;6.590;2023-04-24T08:41:41;5.03;;;1.90;;
8540;SDS011;4308;51.294;6.590;2023-04-24T08:44:10;4.20;;;2.70;;
8540;SDS011;4308;51.294;6.590;2023-04-24T08:46:37;7.60;;;4.27;;
8540;SDS011;4308;51.294;6.590;2023-04-24T08:49:06;5.97;;;4.33;;
8540;SDS011;4308;51.294;6.590;2023-04-24T08:51:33;7.50;;;5.30;;
8540;SDS011;4308;51.294;6.590;2023-04-24T08:54:01;5.93;;;3.90;;
8540;SDS011;4308;51.294;6.590;2023-04-24T08:56:29;6.73;;;2.67;;
8540;SDS011;4308;51.294;6.590;2023-04-24T08:58:56;6.67;;;3.63;;
8540;SDS011;4308;51.294;6.590;2023-04-24T09:01:24;5.77;;;3.80;;
8540;SDS011;4308;51.294;6.590;2023-04-24T09:03:52;7.40;;;4.10;;
8540;SDS011;4308;51.294;6.590;2023-04-24T09:06:20;7.27;;;4.53;;
8540;SDS011;4308;51.294;6.590;2023-04-24T09:08:49;6.87;;;4.23;;
8540;SDS011;4308;51.294;6.590;2023-04-24T09:11:18;6.30;;;4.53;;
8540;SDS011;4308;51.294;6.590;2023-04-24T09:13:45;7.53;;;5.17;;
8540;SDS011;4308;51.294;6.590;2023-04-24T09:16:13;7.60;;;5.23;;
8540;SDS011;4308;51.294;6.590;2023-04-24T09:18:41;8.63;;;5.40;;
8540;SDS011;4308;51.294;6.590;2023-04-24T09:21:09;9.07;;;6.03;;
8540;SDS011;4308;51.294;6.590;2023-04-24T09:23:37;9.33;;;5.23;;
8540;SDS011;4308;51.294;6.590;2023-04-24T09:26:05;8.70;;;6.27;;
8540;SDS011;4308;51.294;6.590;2023-04-24T09:28:37;11.53;;;5.97;;
8540;SDS011;4308;51.294;6.590;2023-04-24T09:33:33;10.07;;;5.67;;
8540;SDS011;4308;51.294;6.590;2023-04-24T09:36:00;8.90;;;5.03;;
8540;SDS011;4308;51.294;6.590;2023-04-24T09:38:38;11.30;;;5.43;;
8540;SDS011;4308;51.294;6.590;2023-04-24T09:41:06;12.90;;;6.30;;
8540;SDS011;4308;51.294;6.590;2023-04-24T09:43:34;11.00;;;6.20;;
8540;SDS011;4308;51.294;6.590;2023-04-24T09:46:06;10.87;;;5.60;;
8540;SDS011;4308;51.294;6.590;2023-04-24T09:48:37;10.27;;;5.50;;
8540;SDS011;4308;51.294;6.590;2023-04-24T09:51:05;7.40;;;5.40;;
8540;SDS011;4308;51.294;6.590;2023-04-24T09:53:33;9.07;;;5.43;;
8540;SDS011;4308;51.294;6.590;2023-04-24T09:56:07;10.27;;;5.30;;
8540;SDS011;4308;51.294;6.590;2023-04-24T09:58:36;11.33;;;6.13;;
8540;SDS011;4308;51.294;6.590;2023-04-24T10:01:04;10.47;;;6.60;;
8540;SDS011;4308;51.294;6.590;2023-04-24T10:03:32;10.10;;;5.63;;
8540;SDS011;4308;51.294;6.590;2023-04-24T10:06:03;12.73;;;5.77;;
8540;SDS011;4308;51.294;6.590;2023-04-24T10:08:35;10.83;;;4.93;;
8540;SDS011;4308;51.294;6.590;2023-04-24T10:11:02;10.33;;;5.87;;
8540;SDS011;4308;51.294;6.590;2023-04-24T10:13:30;12.27;;;5.80;;
8540;SDS011;4308;51.294;6.590;2023-04-24T10:15:58;12.67;;;6.97;;
8540;SDS011;4308;51.294;6.590;2023-04-24T10:18:26;14.90;;;6.80;;
8540;SDS011;4308;51.294;6.590;2023-04-24T10:20:54;11.10;;;6.43;;
8540;SDS011;4308;51.294;6.590;2023-04-24T10:23:22;10.00;;;6.20;;
8540;SDS011;4308;51.294;6.590;2023-04-24T10:25:49;16.33;;;7.00;;
8540;SDS011;4308;51.294;6.590;2023-04-24T10:28:18;12.73;;;6.33;;
8540;SDS011;4308;51.294;6.590;2023-04-24T10:30:46;16.57;;;5.60;;
8540;SDS011;4308;51.294;6.590;2023-04-24T10:33:14;12.17;;;5.10;;
8540;SDS011;4308;51.294;6.590;2023-04-24T10:35:42;14.23;;;6.00;;
8540;SDS011;4308;51.294;6.590;2023-04-24T10:38:12;14.13;;;6.30;;
8540;SDS011;4308;51.294;6.590;2023-04-24T10:40:40;12.90;;;6.03;;
8540;SDS011;4308;51.294;6.590;2023-04-24T10:43:09;13.50;;;7.00;;
8540;SDS011;4308;51.294;6.590;2023-04-24T10:45:37;17.80;;;6.87;;
8540;SDS011;4308;51.294;6.590;2023-04-24T10:48:06;14.40;;;6.97;;
8540;SDS011;4308;51.294;6.590;2023-04-24T10:50:46;21.30;;;8.17;;
8540;SDS011;4308;51.294;6.590;2023-04-24T10:53:15;14.63;;;6.50;;
8540;SDS011;4308;51.294;6.590;2023-04-24T10:55:47;13.83;;;6.70;;
8540;SDS011;4308;51.294;6.590;2023-04-24T10:58:15;16.27;;;6.23;;
8540;SDS011;4308;51.294;6.590;2023-04-24T11:00:43;15.13;;;5.50;;
8540;SDS011;4308;51.294;6.590;2023-04-24T11:05:52;10.97;;;5.77;;
8540;SDS011;4308;51.294;6.590;2023-04-24T11:08:39;9.70;;;4.77;;
8540;SDS011;4308;51.294;6.590;2023-04-24T11:11:14;10.83;;;3.93;;
8540;SDS011;4308;51.294;6.590;2023-04-24T11:16:26;10.97;;;3.87;;
8540;SDS011;4308;51.294;6.590;2023-04-24T11:19:01;8.93;;;3.53;;
8540;SDS011;4308;51.294;6.590;2023-04-24T11:21:38;12.20;;;3.90;;
8540;SDS011;4308;51.294;6.590;2023-04-24T11:27:12;12.10;;;4.37;;
8540;SDS011;4308;51.294;6.590;2023-04-24T11:34:52;11.70;;;3.97;;
8540;SDS011;4308;51.294;6.590;2023-04-24T11:37:21;8.67;;;3.57;;
8540;SDS011;4308;51.294;6.590;2023-04-24T11:39:50;10.40;;;4.43;;
8540;SDS011;4308;51.294;6.590;2023-04-24T11:42:18;10.97;;;3.43;;
8540;SDS011;4308;51.294;6.590;2023-04-24T11:44:45;9.60;;;3.53;;
8540;SDS011;4308;51.294;6.590;2023-04-24T11:47:13;11.40;;;3.47;;
8540;SDS011;4308;51.294;6.590;2023-04-24T11:49:41;9.57;;;3.43;;
8540;SDS011;4308;51.294;6.590;2023-04-24T11:52:08;6.57;;;3.33;;
8540;SDS011;4308;51.294;6.590;2023-04-24T11:54:36;7.47;;;2.87;;
8540;SDS011;4308;51.294;6.590;2023-04-24T11:57:04;7.53;;;2.87;;
8540;SDS011;4308;51.294;6.590;2023-04-24T11:59:35;11.33;;;3.00;;
8540;SDS011;4308;51.294;6.590;2023-04-24T12:02:03;9.67;;;3.50;;
8540;SDS011;4308;51.294;6.590;2023-04-24T12:04:38;4.97;;;2.60;;
8540;SDS011;4308;51.294;6.590;2023-04-24T12:07:06;9.02;;;2.83;;
8540;SDS011;4308;51.294;6.590;2023-04-24T12:10:07;7.50;;;2.80;;
8540;SDS011;4308;51.294;6.590;2023-04-24T12:12:28;8.50;;;2.50;;
8540;SDS011;4308;51.294;6.590;2023-04-24T12:14:56;7.00;;;2.27;;
8540;SDS011;4308;51.294;6.590;2023-04-24T12:17:28;14.10;;;3.63;;
8540;SDS011;4308;51.294;6.590;2023-04-24T12:20:31;8.23;;;2.90;;
8540;SDS011;4308;51.294;6.590;2023-04-24T12:22:51;4.70;;;2.40;;
8540;SDS011;4308;51.294;6.590;2023-04-24T12:25:19;5.30;;;2.13;;
8540;SDS011;4308;51.294;6.590;2023-04-24T12:27:51;5.50;;;2.60;;
8540;SDS011;4308;51.294;6.590;2023-04-24T12:30:19;5.10;;;2.00;;
8540;SDS011;4308;51.294;6.590;2023-04-24T12:32:47;4.17;;;1.90;;
8540;SDS011;4308;51.294;6.590;2023-04-24T12:35:19;6.33;;;1.93;;
8540;SDS011;4308;51.294;6.590;2023-04-24T12:37:47;3.97;;;1.83;;
8540;SDS011;4308;51.294;6.590;2023-04-24T12:40:15;5.37;;;1.87;;
8540;SDS011;4308;51.294;6.590;2023-04-24T12:42:49;5.50;;;2.13;;
8540;SDS011;4308;51.294;6.590;2023-04-24T12:45:17;4.60;;;1.60;;
8540;SDS011;4308;51.294;6.590;2023-04-24T12:47:45;4.33;;;1.70;;
8540;SDS011;4308;51.294;6.590;2023-04-24T12:50:14;2.47;;;1.50;;
8540;SDS011;4308;51.294;6.590;2023-04-24T12:52:42;3.10;;;1.60;;
8540;SDS011;4308;51.294;6.590;2023-04-24T12:55:10;5.23;;;1.70;;
8540;SDS011;4308;51.294;6.590;2023-04-24T12:57:38;4.40;;;1.50;;
8540;SDS011;4308;51.294;6.590;2023-04-24T13:00:07;3.20;;;1.70;;
8540;SDS011;4308;51.294;6.590;2023-04-24T13:02:35;2.87;;;1.40;;
8540;SDS011;4308;51.294;6.590;2023-04-24T13:05:03;4.73;;;1.70;;
8540;SDS011;4308;51.294;6.590;2023-04-24T13:07:31;4.00;;;1.30;;
8540;SDS011;4308;51.294;6.590;2023-04-24T13:09:59;3.17;;;1.30;;
8540;SDS011;4308;51.294;6.590;2023-04-24T13:12:26;4.33;;;1.40;;
8540;SDS011;4308;51.294;6.590;2023-04-24T13:14:54;2.83;;;1.30;;
8540;SDS011;4308;51.294;6.590;2023-04-24T13:17:22;2.83;;;1.40;;
8540;SDS011;4308;51.294;6.590;2023-04-24T13:19:50;2.53;;;1.27;;
8540;SDS011;4308;51.294;6.590;2023-04-24T13:22:18;3.93;;;1.23;;
8540;SDS011;4308;51.294;6.590;2023-04-24T13:24:45;5.33;;;1.07;;
8540;SDS011;4308;51.294;6.590;2023-04-24T13:27:16;3.93;;;1.20;;
8540;SDS011;4308;51.294;6.590;2023-04-24T13:29:44;1.20;;;1.10;;
8540;SDS011;4308;51.294;6.590;2023-04-24T13:32:12;5.03;;;1.50;;
8540;SDS011;4308;51.294;6.590;2023-04-24T13:34:39;4.70;;;1.40;;
8540;SDS011;4308;51.294;6.590;2023-04-24T13:37:07;2.23;;;1.10;;
8540;SDS011;4308;51.294;6.590;2023-04-24T13:39:35;4.00;;;1.53;;
8540;SDS011;4308;51.294;6.590;2023-04-24T13:42:02;2.00;;;1.17;;
8540;SDS011;4308;51.294;6.590;2023-04-24T13:44:31;3.40;;;1.20;;
8540;SDS011;4308;51.294;6.590;2023-04-24T13:46:59;2.57;;;1.53;;
8540;SDS011;4308;51.294;6.590;2023-04-24T13:49:26;5.63;;;1.53;;
8540;SDS011;4308;51.294;6.590;2023-04-24T13:51:54;4.23;;;1.43;;
8540;SDS011;4308;51.294;6.590;2023-04-24T13:54:23;4.23;;;1.50;;
8540;SDS011;4308;51.294;6.590;2023-04-24T13:56:50;9.80;;;1.83;;
8540;SDS011;4308;51.294;6.590;2023-04-24T13:59:19;5.27;;;1.87;;
8540;SDS011;4308;51.294;6.590;2023-04-24T14:01:47;4.10;;;1.63;;
8540;SDS011;4308;51.294;6.590;2023-04-24T14:04:15;1.43;;;0.97;;
8540;SDS011;4308;51.294;6.590;2023-04-24T14:06:43;3.40;;;1.57;;
8540;SDS011;4308;51.294;6.590;2023-04-24T14:09:10;5.30;;;1.87;;
8540;SDS011;4308;51.294;6.590;2023-04-24T14:11:38;4.57;;;1.67;;
8540;SDS011;4308;51.294;6.590;2023-04-24T14:14:06;1.20;;;1.10;;
8540;SDS011;4308;51.294;6.590;2023-04-24T14:16:33;2.47;;;1.20;;
8540;SDS011;4308;51.294;6.590;2023-04-24T14:19:01;4.60;;;2.10;;
8540;SDS011;4308;51.294;6.590;2023-04-24T14:21:29;3.73;;;1.37;;
8540;SDS011;4308;51.294;6.590;2023-04-24T14:23:57;3.17;;;1.50;;
8540;SDS011;4308;51.294;6.590;2023-04-24T14:26:24;9.67;;;1.67;;
8540;SDS011;4308;51.294;6.590;2023-04-24T14:28:52;2.80;;;1.40;;
8540;SDS011;4308;51.294;6.590;2023-04-24T14:31:29;4.37;;;1.70;;
8540;SDS011;4308;51.294;6.590;2023-04-24T14:33:57;2.50;;;1.53;;
8540;SDS011;4308;51.294;6.590;2023-04-24T14:36:24;2.50;;;1.30;;
8540;SDS011;4308;51.294;6.590;2023-04-24T14:38:52;4.93;;;1.47;;
8540;SDS011;4308;51.294;6.590;2023-04-24T14:41:20;7.10;;;1.50;;
8540;SDS011;4308;51.294;6.590;2023-04-24T14:43:47;3.77;;;1.90;;
8540;SDS011;4308;51.294;6.590;2023-04-24T14:46:15;5.27;;;1.70;;
8540;SDS011;4308;51.294;6.590;2023-04-24T14:48:43;9.30;;;2.17;;
8540;SDS011;4308;51.294;6.590;2023-04-24T14:51:10;2.90;;;1.60;;
8540;SDS011;4308;51.294;6.590;2023-04-24T14:53:38;4.30;;;1.50;;
8540;SDS011;4308;51.294;6.590;2023-04-24T14:56:05;2.63;;;1.60;;
8540;SDS011;4308;51.294;6.590;2023-04-24T14:58:33;4.00;;;1.63;;
8540;SDS011;4308;51.294;6.590;2023-04-24T15:01:01;4.00;;;1.70;;
8540;SDS011;4308;51.294;6.590;2023-04-24T15:03:29;4.23;;;1.70;;
8540;SDS011;4308;51.294;6.590;2023-04-24T15:05:57;2.87;;;1.93;;
8540;SDS011;4308;51.294;6.590;2023-04-24T15:08:24;3.70;;;1.70;;
8540;SDS011;4308;51.294;6.590;2023-04-24T15:10:52;5.33;;;1.77;;
8540;SDS011;4308;51.294;6.590;2023-04-24T15:13:20;5.13;;;1.60;;
8540;SDS011;4308;51.294;6.590;2023-04-24T15:15:47;4.60;;;1.73;;
8540;SDS011;4308;51.294;6.590;2023-04-24T15:18:15;5.40;;;2.43;;
8540;SDS011;4308;51.294;6.590;2023-04-24T15:20:43;4.27;;;1.40;;
8540;SDS011;4308;51.294;6.590;2023-04-24T15:23:10;4.53;;;1.90;;
8540;SDS011;4308;51.294;6.590;2023-04-24T15:25:38;5.33;;;1.87;;
8540;SDS011;4308;51.294;6.590;2023-04-24T15:28:06;2.40;;;1.63;;
8540;SDS011;4308;51.294;6.590;2023-04-24T15:30:33;2.67;;;1.70;;
8540;SDS011;4308;51.294;6.590;2023-04-24T15:33:01;3.30;;;1.73;;